Time;durP1;ratioP1;P1;durP2;ratioP2;P2;SDS_P1;SDS_P2;PMS_P1;PMS_P2;Temp;Humidity;BMP_temperature;BMP_pressure;BME280_temperature;BME280_humidity;BME280_pressure;Samples;Min_cycle;Max_cycle;Signal;HPM_P1;HPM_P2
2023/12/13 00:02:20;;;;;;;7.80;7.00;;;;;;;2.14;100.00;100860.98;106043;1250;72323;-76
2023/12/13 00:04:48;;;;;;;8.90;6.60;;;;;;;2.13;100.00;100860.48;106013;1254;61042;-78
2023/12/13 00:07:15;;;;;;;8.70;7.10;;;;;;;2.11;100.00;100862.09;105897;1254;60812;-78
2023/12/13 00:09:42;;;;;;;7.60;6.60;;;;;;;2.10;100.00;100863.52;106018;1250;74058;-78
2023/12/13 00:12:12;;;;;;;9.70;7.50;;;;;;;2.10;100.00;100864.35;106035;1250;62505;-80
2023/12/13 00:14:38;;;;;;;10.70;7.10;;;;;;;2.11;100.00;100866.58;105947;1251;72429;-77
2023/12/13 00:17:08;;;;;;;9.50;7.80;;;;;;;2.10;100.00;100868.15;105935;1250;60623;-76
2023/12/13 00:19:36;;;;;;;9.20;7.90;;;;;;;2.07;100.00;100872.02;106130;1251;60453;-78
2023/12/13 00:22:04;;;;;;;9.20;7.70;;;;;;;2.06;100.00;100870.48;106149;1250;73884;-76
2023/12/13 00:24:30;;;;;;;8.70;7.40;;;;;;;2.06;100.00;100871.86;106136;1256;63840;-76
2023/12/13 00:26:57;;;;;;;8.70;7.10;;;;;;;2.03;100.00;100873.48;105877;1253;71532;-77
2023/12/13 00:29:24;;;;;;;8.40;7.50;;;;;;;1.99;100.00;100872.51;106014;1256;61261;-78
2023/12/13 00:31:51;;;;;;;8.50;6.70;;;;;;;1.95;100.00;100866.23;106005;1254;60377;-78
2023/12/13 00:34:18;;;;;;;11.70;8.20;;;;;;;1.92;100.00;100863.34;105877;1250;72645;-77
2023/12/13 00:36:45;;;;;;;11.90;7.80;;;;;;;1.94;100.00;100865.39;106014;1250;62387;-77
2023/12/13 00:39:12;;;;;;;13.00;9.20;;;;;;;1.97;100.00;100864.79;105944;1256;72705;-80
2023/12/13 00:41:39;;;;;;;12.00;8.50;;;;;;;1.97;100.00;100861.01;106083;1254;61122;-79
2023/12/13 00:44:06;;;;;;;10.80;9.60;;;;;;;1.96;100.00;100856.73;106008;1255;60434;-78
2023/12/13 00:46:35;;;;;;;8.80;6.70;;;;;;;1.96;100.00;100857.58;105985;1250;73611;-79
2023/12/13 00:49:02;;;;;;;10.60;7.90;;;;;;;1.94;100.00;100853.65;105898;1255;63859;-79
2023/12/13 00:51:30;;;;;;;13.30;7.90;;;;;;;1.91;100.00;100854.23;105982;1251;72358;-77
2023/12/13 00:53:57;;;;;;;8.80;6.80;;;;;;;1.88;100.00;100856.72;106089;1250;61063;-78
2023/12/13 00:56:24;;;;;;;12.20;8.60;;;;;;;1.85;100.00;100855.91;106021;1250;60478;-76
2023/12/13 00:58:51;;;;;;;12.30;8.40;;;;;;;1.83;100.00;100858.19;105911;1255;72518;-79
2023/12/13 01:01:18;;;;;;;12.50;8.80;;;;;;;1.82;100.00;100862.52;105964;1250;62876;-79
2023/12/13 01:03:45;;;;;;;10.00;7.60;;;;;;;1.82;100.00;100862.02;105991;1255;71523;-80
2023/12/13 01:06:15;;;;;;;12.20;7.60;;;;;;;1.85;100.00;100859.88;105915;1250;61154;-78
2023/12/13 01:08:42;;;;;;;15.00;9.20;;;;;;;1.86;100.00;100856.22;106123;1250;60544;-79
2023/12/13 01:11:09;;;;;;;11.60;9.10;;;;;;;1.86;100.00;100853.47;105925;1250;72441;-77
2023/12/13 01:13:37;;;;;;;7.70;6.50;;;;;;;1.84;100.00;100855.74;106080;1254;63948;-76
2023/12/13 01:16:06;;;;;;;11.00;7.80;;;;;;;1.82;100.00;100853.03;106026;1255;72776;-78
2023/12/13 01:18:33;;;;;;;8.10;6.90;;;;;;;1.80;100.00;100853.77;105936;1255;61159;-77
2023/12/13 01:21:00;;;;;;;10.90;6.80;;;;;;;1.79;100.00;100852.92;105849;1250;60455;-79
2023/12/13 01:23:27;;;;;;;8.90;7.20;;;;;;;1.77;100.00;100853.98;106007;1254;73941;-79
2023/12/13 01:25:54;;;;;;;9.20;7.60;;;;;;;1.77;100.00;100852.63;105942;1250;62461;-76
2023/12/13 01:28:22;;;;;;;9.80;7.30;;;;;;;1.77;100.00;100855.56;105909;1255;72636;-78
2023/12/13 01:30:49;;;;;;;9.50;6.60;;;;;;;1.75;100.00;100851.30;105996;1256;60882;-78
2023/12/13 01:33:16;;;;;;;13.80;8.40;;;;;;;1.73;100.00;100849.25;105943;1251;60996;-79
2023/12/13 01:35:43;;;;;;;9.60;7.50;;;;;;;1.71;100.00;100847.40;105891;1250;72864;-80
2023/12/13 01:38:10;;;;;;;11.40;9.10;;;;;;;1.71;100.00;100849.46;106005;1254;61301;-79
2023/12/13 01:40:37;;;;;;;9.40;6.50;;;;;;;1.74;100.00;100843.71;105943;1251;71166;-79
2023/12/13 01:43:04;;;;;;;7.80;6.50;;;;;;;1.74;100.00;100845.77;106327;1250;60857;-76
2023/12/13 01:45:31;;;;;;;6.70;6.00;;;;;;;1.71;100.00;100846.02;105986;1256;60338;-78
2023/12/13 01:47:58;;;;;;;7.40;5.20;;;;;;;1.69;100.00;100842.79;106071;1254;72586;-78
2023/12/13 01:50:25;;;;;;;9.90;6.70;;;;;;;1.69;100.00;100843.65;105967;1256;63749;-78
2023/12/13 01:52:53;;;;;;;10.40;6.70;;;;;;;1.70;100.00;100845.02;105951;1251;71445;-81
2023/12/13 01:55:20;;;;;;;11.50;7.60;;;;;;;1.68;100.00;100844.17;106192;1251;60953;-76
2023/12/13 01:57:48;;;;;;;6.70;5.50;;;;;;;1.65;100.00;100845.42;106794;1250;60435;-76
2023/12/13 02:00:15;;;;;;;5.10;4.60;;;;;;;1.67;100.00;100848.50;106159;1256;73878;-78
2023/12/13 02:02:42;;;;;;;6.60;5.20;;;;;;;1.67;100.00;100848.85;105767;1256;63882;-79
2023/12/13 02:05:10;;;;;;;7.70;5.10;;;;;;;1.65;100.00;100848.20;105968;1253;71256;-80
2023/12/13 02:07:36;;;;;;;6.60;5.00;;;;;;;1.63;100.00;100844.80;105888;1251;60921;-79
2023/12/13 02:10:06;;;;;;;7.70;6.10;;;;;;;1.60;100.00;100841.58;105969;1256;60446;-79
2023/12/13 02:12:34;;;;;;;8.80;7.00;;;;;;;1.57;100.00;100840.08;105920;1254;73223;-79
2023/12/13 02:15:01;;;;;;;6.90;5.90;;;;;;;1.56;100.00;100847.01;106015;1250;62360;-79
2023/12/13 02:17:29;;;;;;;7.10;5.90;;;;;;;1.53;100.00;100850.50;105811;1257;72655;-80
2023/12/13 02:19:56;;;;;;;7.40;5.70;;;;;;;1.50;100.00;100852.13;106031;1256;60975;-79
2023/12/13 02:22:23;;;;;;;6.90;5.60;;;;;;;1.46;100.00;100850.11;106065;1250;60473;-80
2023/12/13 02:24:50;;;;;;;8.30;6.40;;;;;;;1.42;100.00;100845.54;106015;1251;73831;-79
2023/12/13 02:27:17;;;;;;;5.80;5.00;;;;;;;1.38;100.00;100851.29;106053;1256;63837;-79
2023/12/13 02:29:47;;;;;;;8.50;6.50;;;;;;;1.35;100.00;100854.45;105817;1257;72670;-78
2023/12/13 02:32:15;;;;;;;7.30;6.10;;;;;;;1.35;100.00;100861.85;105940;1256;61227;-79
2023/12/13 02:34:42;;;;;;;11.70;7.20;;;;;;;1.41;100.00;100860.55;105961;1250;60517;-80
2023/12/13 02:37:09;;;;;;;9.10;7.60;;;;;;;1.46;100.00;100863.20;105941;1254;73954;-79
2023/12/13 02:39:35;;;;;;;9.30;8.00;;;;;;;1.50;100.00;100868.98;106073;1256;62355;-79
2023/12/13 02:42:04;;;;;;;11.20;8.50;;;;;;;1.52;100.00;100869.48;105961;1254;72637;-79
2023/12/13 02:44:31;;;;;;;9.50;8.40;;;;;;;1.52;100.00;100865.69;106692;1256;61141;-79
2023/12/13 02:46:59;;;;;;;11.10;8.70;;;;;;;1.51;100.00;100867.59;106603;1256;60313;-79
2023/12/13 02:49:26;;;;;;;10.30;8.10;;;;;;;1.51;100.00;100876.89;106508;1251;72486;-77
2023/12/13 02:51:53;;;;;;;8.60;7.10;;;;;;;1.51;100.00;100880.69;106260;1256;63856;-78
2023/12/13 02:54:22;;;;;;;6.70;5.40;;;;;;;1.47;100.00;100883.52;106098;1250;71460;-78
2023/12/13 02:56:49;;;;;;;7.60;5.40;;;;;;;1.40;100.00;100886.91;106186;1254;60472;-78
2023/12/13 02:59:16;;;;;;;7.30;6.00;;;;;;;1.33;100.00;100890.83;106128;1255;60338;-81
2023/12/13 03:01:43;;;;;;;9.60;7.40;;;;;;;1.27;100.00;100887.83;106091;1252;72419;-77
2023/12/13 03:04:10;;;;;;;8.20;6.50;;;;;;;1.23;100.00;100885.83;106067;1256;62335;-79
2023/12/13 03:06:37;;;;;;;9.10;6.60;;;;;;;1.22;100.00;100884.14;106080;1256;72658;-79
2023/12/13 03:09:04;;;;;;;11.00;7.20;;;;;;;1.17;100.00;100883.88;105938;1252;60470;-78
2023/12/13 03:11:31;;;;;;;9.50;7.60;;;;;;;1.11;100.00;100887.08;105950;1250;60543;-80
2023/12/13 03:13:58;;;;;;;7.90;6.60;;;;;;;1.07;100.00;100890.92;105928;1251;73829;-79
2023/12/13 03:16:25;;;;;;;8.00;5.60;;;;;;;1.03;100.00;100893.92;105912;1256;61646;-78
2023/12/13 03:18:52;;;;;;;12.50;7.70;;;;;;;1.02;100.00;100899.61;105853;1254;72371;-78
2023/12/13 03:21:19;;;;;;;11.10;8.50;;;;;;;1.04;100.00;100901.81;105851;1256;60950;-78
2023/12/13 03:23:46;;;;;;;9.50;7.90;;;;;;;1.06;100.00;100903.85;105941;1257;60779;-77
2023/12/13 03:26:14;;;;;;;10.40;7.10;;;;;;;1.08;100.00;100905.20;105998;1250;72749;-77
2023/12/13 03:28:41;;;;;;;10.40;7.20;;;;;;;1.14;100.00;100907.86;107123;1250;62415;-77
2023/12/13 03:31:08;;;;;;;10.60;7.70;;;;;;;1.16;100.00;100914.54;107896;1255;71558;-76
2023/12/13 03:33:35;;;;;;;9.10;6.80;;;;;;;1.19;100.00;100915.87;105954;1263;60450;-79
2023/12/13 03:36:02;;;;;;;8.70;6.70;;;;;;;1.22;100.00;100910.98;107170;1250;60446;-79
2023/12/13 03:38:29;;;;;;;9.00;6.20;;;;;;;1.20;100.00;100913.08;106459;1254;73874;-76
2023/12/13 03:40:57;;;;;;;7.90;6.50;;;;;;;1.16;100.00;100917.30;106052;1264;63968;-77
2023/12/13 03:43:24;;;;;;;9.70;6.70;;;;;;;1.11;100.00;100923.58;105988;1256;72509;-78
2023/12/13 03:45:51;;;;;;;11.20;6.70;;;;;;;1.05;100.00;100922.98;105926;1256;61063;-77
2023/12/13 03:48:18;;;;;;;9.40;8.00;;;;;;;1.01;100.00;100924.40;105937;1257;60809;-78
2023/12/13 03:50:47;;;;;;;10.00;6.60;;;;;;;1.01;100.00;100926.48;105994;1252;73820;-76
2023/12/13 03:53:14;;;;;;;6.70;5.60;;;;;;;0.98;100.00;100927.23;105864;1255;63713;-76
2023/12/13 03:55:41;;;;;;;10.50;6.20;;;;;;;0.94;100.00;100920.73;105940;1253;71280;-79
2023/12/13 03:58:07;;;;;;;8.10;5.40;;;;;;;0.89;100.00;100921.51;105902;1256;60953;-77
2023/12/13 04:00:34;;;;;;;8.50;6.10;;;;;;;0.85;100.00;100919.16;105922;1251;60550;-76
2023/12/13 04:03:02;;;;;;;7.80;7.00;;;;;;;0.81;100.00;100920.08;105937;1251;73981;-77
2023/12/13 04:05:30;;;;;;;9.10;6.50;;;;;;;0.78;100.00;100922.88;105970;1257;64056;-79
2023/12/13 04:07:57;;;;;;;10.00;6.00;;;;;;;0.75;100.00;100921.37;105853;1253;72669;-77
2023/12/13 04:10:26;;;;;;;8.10;6.40;;;;;;;0.74;100.00;100923.27;105942;1254;61095;-77
2023/12/13 04:12:52;;;;;;;7.60;5.40;;;;;;;0.74;100.00;100928.45;105940;1256;60435;-76
2023/12/13 04:15:20;;;;;;;7.40;6.10;;;;;;;0.75;100.00;100924.47;105858;1256;73704;-78
2023/12/13 04:17:48;;;;;;;7.90;6.70;;;;;;;0.75;100.00;100924.30;105927;1256;65256;-78
2023/12/13 04:20:16;;;;;;;9.90;7.50;;;;;;;0.74;100.00;100923.45;106053;1255;71220;-79
2023/12/13 04:22:44;;;;;;;11.00;7.90;;;;;;;0.77;100.00;100925.30;106038;1252;60414;-75
2023/12/13 04:25:11;;;;;;;11.90;7.90;;;;;;;0.81;100.00;100926.45;105988;1255;60543;-77
2023/12/13 04:27:38;;;;;;;10.30;7.50;;;;;;;0.83;100.00;100930.02;105923;1256;73771;-78
2023/12/13 04:30:08;;;;;;;8.80;6.60;;;;;;;0.79;100.00;100933.52;105924;1256;62345;-80
2023/12/13 04:32:35;;;;;;;9.30;6.10;;;;;;;0.77;100.00;100938.05;106012;1256;72751;-78
2023/12/13 04:35:02;;;;;;;7.40;5.50;;;;;;;0.72;100.00;100941.19;105949;1250;60898;-78
2023/12/13 04:37:30;;;;;;;8.60;6.40;;;;;;;0.65;100.00;100935.27;106010;1251;61450;-79
2023/12/13 04:39:58;;;;;;;8.40;6.50;;;;;;;0.63;100.00;100938.73;105899;1257;74143;-77
2023/12/13 04:42:25;;;;;;;11.80;7.80;;;;;;;0.61;100.00;100942.39;105899;1255;63819;-79
2023/12/13 04:44:53;;;;;;;12.70;8.00;;;;;;;0.59;100.00;100938.96;105912;1255;70640;-79
2023/12/13 04:47:20;;;;;;;11.10;8.70;;;;;;;0.59;100.00;100942.23;105992;1257;61226;-78
2023/12/13 04:49:47;;;;;;;13.30;8.90;;;;;;;0.59;100.00;100945.84;106005;1256;60352;-78
2023/12/13 04:52:15;;;;;;;11.00;8.50;;;;;;;0.58;100.00;100950.00;105948;1256;72495;-79
2023/12/13 04:54:42;;;;;;;13.50;9.80;;;;;;;0.57;100.00;100951.73;105980;1263;63662;-77
2023/12/13 04:57:09;;;;;;;13.40;8.20;;;;;;;0.56;100.00;100953.82;105889;1253;71661;-78
2023/12/13 04:59:37;;;;;;;17.20;8.30;;;;;;;0.54;100.00;100952.98;105904;1255;61229;-78
2023/12/13 05:02:04;;;;;;;10.20;7.80;;;;;;;0.49;100.00;100947.54;105913;1257;60361;-78
2023/12/13 05:04:31;;;;;;;10.00;6.80;;;;;;;0.44;100.00;100953.80;105936;1251;73774;-79
2023/12/13 05:06:57;;;;;;;10.80;6.80;;;;;;;0.38;100.00;100951.29;105989;1254;63772;-79
2023/12/13 05:09:24;;;;;;;10.90;7.30;;;;;;;0.37;100.00;100948.73;105826;1251;71304;-78
2023/12/13 05:11:51;;;;;;;9.60;7.00;;;;;;;0.36;100.00;100950.80;105904;1263;60540;-78
2023/12/13 05:14:21;;;;;;;12.40;8.30;;;;;;;0.36;100.00;100950.95;105976;1254;60436;-77
2023/12/13 05:16:48;;;;;;;13.10;9.40;;;;;;;0.36;100.00;100951.66;105883;1257;73820;-78
2023/12/13 05:19:15;;;;;;;16.40;10.50;;;;;;;0.35;100.00;100946.33;105939;1254;63653;-78
2023/12/13 05:21:42;;;;;;;18.50;10.60;;;;;;;0.33;100.00;100948.77;106069;1256;72663;-79
2023/12/13 05:24:10;;;;;;;14.00;9.20;;;;;;;0.30;100.00;100948.98;105953;1259;61149;-78
2023/12/13 05:26:36;;;;;;;17.90;12.70;;;;;;;0.26;100.00;100955.04;105863;1256;60435;-79
2023/12/13 05:29:03;;;;;;;14.70;12.20;;;;;;;0.24;100.00;100958.69;105942;1257;73636;-77
2023/12/13 05:31:30;;;;;;;20.10;13.40;;;;;;;0.25;100.00;100959.20;106008;1254;63878;-77
2023/12/13 05:33:57;;;;;;;19.00;14.10;;;;;;;0.27;100.00;100965.36;105853;1254;72841;-77
2023/12/13 05:36:24;;;;;;;21.00;15.10;;;;;;;0.28;100.00;100969.46;105907;1255;60449;-77
2023/12/13 05:38:51;;;;;;;23.50;14.80;;;;;;;0.30;100.00;100965.67;105939;1254;60361;-76
2023/12/13 05:41:18;;;;;;;18.00;13.70;;;;;;;0.32;100.00;100968.91;105957;1254;72408;-78
2023/12/13 05:43:45;;;;;;;23.50;15.70;;;;;;;0.32;100.00;100970.12;106043;1254;63353;-76
2023/12/13 05:46:12;;;;;;;25.10;16.90;;;;;;;0.29;100.00;100964.98;106088;1255;72679;-77
2023/12/13 05:48:39;;;;;;;19.30;13.50;;;;;;;0.27;100.00;100967.41;106238;1257;60431;-75
2023/12/13 05:51:09;;;;;;;18.10;10.80;;;;;;;0.27;100.00;100967.08;106380;1254;60432;-74
2023/12/13 05:53:39;;;;;;;17.90;11.70;;;;;;;0.28;100.00;100968.77;106075;1251;72626;-78
2023/12/13 05:56:13;;;;;;;15.20;9.80;;;;;;;0.28;100.00;100967.39;106041;1254;63696;-77
2023/12/13 05:58:40;;;;;;;15.50;10.50;;;;;;;0.30;100.00;100968.41;105934;1254;72708;-78
2023/12/13 06:01:07;;;;;;;16.10;10.50;;;;;;;0.33;100.00;100968.89;105954;1254;60946;-77
2023/12/13 06:03:34;;;;;;;12.00;8.60;;;;;;;0.34;100.00;100966.13;105995;1251;60528;-78
2023/12/13 06:06:03;;;;;;;11.60;8.20;;;;;;;0.35;100.00;100959.91;105959;1254;73924;-77
2023/12/13 06:08:30;;;;;;;13.80;8.50;;;;;;;0.36;100.00;100960.77;106011;1263;62774;-77
2023/12/13 06:11:00;;;;;;;11.80;8.60;;;;;;;0.35;100.00;100957.85;105886;1264;73127;-78
2023/12/13 06:13:27;;;;;;;12.40;7.80;;;;;;;0.33;100.00;100963.21;105924;1256;61136;-76
2023/12/13 06:15:55;;;;;;;12.30;8.00;;;;;;;0.31;100.00;100964.80;105801;1254;60421;-77
2023/12/13 06:18:21;;;;;;;14.00;9.30;;;;;;;0.31;100.00;100970.80;105963;1255;73717;-77
2023/12/13 06:20:48;;;;;;;15.20;10.10;;;;;;;0.35;100.00;100976.10;105893;1254;63777;-77
2023/12/13 06:23:16;;;;;;;15.50;9.90;;;;;;;0.38;100.00;100982.59;105909;1252;72846;-77
2023/12/13 06:25:43;;;;;;;17.40;9.90;;;;;;;0.40;100.00;100981.35;105874;1254;60491;-77
2023/12/13 06:28:11;;;;;;;12.80;9.50;;;;;;;0.45;100.00;100978.55;106010;1256;60543;-79
2023/12/13 06:30:38;;;;;;;13.40;8.00;;;;;;;0.48;100.00;100981.61;106205;1251;73918;-77
2023/12/13 06:33:09;;;;;;;15.10;8.90;;;;;;;0.51;100.00;100984.48;109078;1254;63820;-79
2023/12/13 06:35:36;;;;;;;14.10;8.90;;;;;;;0.50;100.00;100984.52;106203;1251;73106;-78
2023/12/13 06:38:03;;;;;;;15.00;9.60;;;;;;;0.48;100.00;100977.48;106168;1255;61171;-78
2023/12/13 06:40:31;;;;;;;15.60;10.30;;;;;;;0.48;100.00;100975.41;105971;1251;60550;-78
2023/12/13 06:42:58;;;;;;;13.60;8.90;;;;;;;0.53;100.00;100980.52;105942;1251;73603;-78
2023/12/13 06:45:25;;;;;;;13.10;8.70;;;;;;;0.54;100.00;100986.02;106062;1257;62648;-77
2023/12/13 06:47:52;;;;;;;14.80;10.30;;;;;;;0.54;100.00;100993.74;106074;1251;72800;-76
2023/12/13 06:50:19;;;;;;;13.60;9.60;;;;;;;0.53;100.00;100995.98;106001;1254;60952;-78
2023/12/13 06:52:48;;;;;;;17.70;11.10;;;;;;;0.49;100.00;100992.78;106021;1251;60435;-80
2023/12/13 06:55:15;;;;;;;14.40;9.60;;;;;;;0.46;100.00;100988.86;106007;1250;72551;-78
2023/12/13 06:57:42;;;;;;;12.80;9.70;;;;;;;0.44;100.00;100995.24;106125;1254;63843;-77
2023/12/13 07:00:10;;;;;;;16.90;10.40;;;;;;;0.43;100.00;100999.90;105921;1254;72582;-78
2023/12/13 07:02:37;;;;;;;15.40;10.50;;;;;;;0.43;100.00;101002.32;105996;1251;60552;-78
2023/12/13 07:05:05;;;;;;;14.50;10.10;;;;;;;0.45;100.00;101001.27;105946;1260;60462;-76
2023/12/13 07:07:32;;;;;;;14.90;10.90;;;;;;;0.47;100.00;100999.85;105946;1255;72199;-75
2023/12/13 07:10:00;;;;;;;16.30;10.30;;;;;;;0.48;100.00;100998.63;105889;1254;62795;-77
2023/12/13 07:12:29;;;;;;;16.20;10.70;;;;;;;0.46;100.00;100994.00;105942;1254;72464;-76
2023/12/13 07:14:56;;;;;;;14.90;10.10;;;;;;;0.47;100.00;100999.33;105816;1254;61163;-77
2023/12/13 07:17:24;;;;;;;14.70;10.70;;;;;;;0.46;100.00;101004.52;105899;1252;60338;-78
2023/12/13 07:19:51;;;;;;;16.80;10.80;;;;;;;0.45;100.00;101009.70;105629;1254;241066;-79
2023/12/13 07:23:57;;;;;;;17.70;12.60;;;;;;;0.41;100.00;101009.91;103731;1286;601294;-78
2023/12/13 07:26:25;;;;;;;22.80;16.00;;;;;;;0.37;100.00;101010.11;105130;1270;60852;-77
2023/12/13 07:28:55;;;;;;;20.50;13.80;;;;;;;0.38;100.00;101004.77;104900;1270;59275;-77
2023/12/13 07:31:23;;;;;;;20.90;14.10;;;;;;;0.41;100.00;101003.19;104958;1264;74686;-76
2023/12/13 07:33:51;;;;;;;14.80;10.10;;;;;;;0.43;100.00;101005.92;104849;1269;61498;-80
2023/12/13 07:36:19;;;;;;;19.30;12.60;;;;;;;0.39;100.00;101010.44;104925;1266;70615;-78
2023/12/13 07:38:47;;;;;;;21.50;12.70;;;;;;;0.34;100.00;101017.02;104953;1268;205027;-78
2023/12/13 07:41:15;;;;;;;17.00;11.70;;;;;;;0.32;100.00;101025.30;105104;1267;59403;-78
2023/12/13 19:41:34;;;;;;;18.20;9.10;;;;;;;-1.60;100.00;101153.05;102794;1294;601223;-77
2023/12/13 19:44:02;;;;;;;19.40;9.30;;;;;;;-1.67;100.00;101143.98;105054;1268;60917;-78
2023/12/13 19:46:29;;;;;;;32.00;11.50;;;;;;;-1.72;100.00;101143.98;105048;1264;60450;-77
2023/12/13 19:48:57;;;;;;;20.20;8.70;;;;;;;-1.75;100.00;101149.98;105265;1259;72254;-78
2023/12/13 19:51:25;;;;;;;20.60;9.10;;;;;;;-1.80;100.00;101147.94;105309;1261;64290;-77
2023/12/13 19:53:52;;;;;;;29.20;8.60;;;;;;;-1.81;100.00;101150.67;105274;1261;73813;-79
2023/12/13 19:56:20;;;;;;;16.80;8.60;;;;;;;-1.79;100.00;101149.81;105176;1258;210237;-78
2023/12/13 19:58:49;;;;;;;22.40;8.50;;;;;;;-1.76;100.00;101149.46;105475;1257;62206;-78
2023/12/13 20:01:16;;;;;;;20.50;7.80;;;;;;;-1.75;100.00;101146.38;105434;1257;70959;-77
2023/12/13 20:03:46;;;;;;;20.80;9.50;;;;;;;-1.76;100.00;101149.80;105373;1257;64476;-78
2023/12/13 20:06:17;;;;;;;24.90;8.90;;;;;;;-1.77;100.00;101149.13;105327;1259;73542;-76
2023/12/13 20:08:50;;;;;;;;;;;;;;;-1.80;100.00;101147.42;105537;1257;60627;-78
2023/12/13 20:11:24;;;;;;;21.40;8.40;;;;;;;-1.82;100.00;101153.92;105429;1260;59615;-77
2023/12/13 20:13:55;;;;;;;22.70;9.10;;;;;;;-1.86;100.00;101149.47;105627;1257;72883;-77
2023/12/13 20:16:25;;;;;;;23.80;10.30;;;;;;;-1.87;100.00;101151.35;105428;1257;62903;-77
2023/12/13 20:18:53;;;;;;;23.70;8.60;;;;;;;-1.88;100.00;101156.84;105434;1260;74435;-77
2023/12/13 20:21:21;;;;;;;35.40;10.80;;;;;;;-1.87;100.00;101154.09;105465;1263;61922;-79
2023/12/13 20:23:48;;;;;;;28.00;11.30;;;;;;;-1.89;100.00;101153.23;105572;1256;60562;-78
2023/12/13 20:26:20;;;;;;;27.30;10.20;;;;;;;-1.90;100.00;101150.00;105587;1260;73069;-78
2023/12/13 20:28:49;;;;;;;22.10;10.20;;;;;;;-1.90;100.00;101147.94;105482;1258;63292;-77
2023/12/13 20:31:18;;;;;;;20.60;8.70;;;;;;;-1.93;100.00;101144.69;105446;1261;71964;-77
2023/12/13 20:33:46;;;;;;;25.50;9.40;;;;;;;-1.96;100.00;101147.59;105555;1256;64085;-77
2023/12/13 20:36:14;;;;;;;21.60;10.20;;;;;;;-1.96;100.00;101151.88;105557;1260;59665;-78
2023/12/13 20:38:43;;;;;;;19.30;10.10;;;;;;;-1.94;100.00;101154.11;105601;1255;72896;-79
2023/12/13 20:41:11;;;;;;;27.80;9.60;;;;;;;-1.91;100.00;101158.05;105508;1257;64950;-78
2023/12/13 20:43:39;;;;;;;27.10;10.70;;;;;;;-1.86;100.00;101158.90;105662;1255;73263;-78
2023/12/13 20:46:07;;;;;;;18.10;8.60;;;;;;;-1.86;100.00;101165.92;105517;1260;63433;-77
2023/12/13 20:48:34;;;;;;;21.50;8.90;;;;;;;-1.84;100.00;101164.56;105482;1255;60109;-77
2023/12/13 20:51:03;;;;;;;22.70;9.00;;;;;;;-1.81;100.00;101167.29;105584;1259;71946;-77
2023/12/13 20:53:31;;;;;;;24.00;10.00;;;;;;;-1.82;100.00;101168.49;105752;1260;65594;-78
2023/12/13 20:55:58;;;;;;;27.30;10.20;;;;;;;-1.88;100.00;101165.06;105752;1255;71284;-77
2023/12/13 20:58:27;;;;;;;24.50;11.40;;;;;;;-1.93;100.00;101167.30;105842;1253;61923;-77
2023/12/13 21:00:55;;;;;;;32.90;9.50;;;;;;;-1.99;100.00;101162.68;108381;1253;59604;-77
2023/12/13 21:03:23;;;;;;;23.60;11.10;;;;;;;-2.01;100.00;101161.64;107887;1258;71600;-77
2023/12/13 21:05:51;;;;;;;17.30;8.40;;;;;;;-1.97;100.00;101167.13;105781;1257;62645;-76
2023/12/13 21:08:19;;;;;;;26.00;11.00;;;;;;;-1.93;100.00;101167.64;105725;1260;72593;-76
2023/12/13 21:10:47;;;;;;;24.90;10.80;;;;;;;-1.90;100.00;101157.19;105663;1259;60377;-76
2023/12/13 21:13:15;;;;;;;26.60;11.90;;;;;;;-1.88;100.00;101147.25;105985;1257;61852;-77
2023/12/13 21:15:44;;;;;;;19.10;10.10;;;;;;;-1.84;100.00;101150.33;105897;1255;74620;-78
2023/12/13 21:18:11;;;;;;;21.00;9.50;;;;;;;-1.84;100.00;101146.91;105940;1258;62433;-77
2023/12/13 21:20:39;;;;;;;28.20;11.70;;;;;;;-1.83;100.00;101147.07;105893;1256;72997;-78
2023/12/13 21:23:07;;;;;;;20.20;9.60;;;;;;;-1.83;100.00;101146.73;105898;1251;63691;-77
2023/12/13 21:25:36;;;;;;;18.50;9.30;;;;;;;-1.80;100.00;101149.30;105921;1252;62319;-76
2023/12/13 21:28:04;;;;;;;20.60;9.70;;;;;;;-1.80;100.00;101154.61;105892;1257;72043;-76
2023/12/13 21:30:32;;;;;;;28.50;10.90;;;;;;;-1.82;100.00;101149.63;105917;1251;62456;-77
2023/12/13 21:32:59;;;;;;;21.70;11.20;;;;;;;-1.82;100.00;101142.96;106013;1257;72519;-77
2023/12/13 21:35:27;;;;;;;14.20;8.80;;;;;;;-1.81;100.00;101141.08;105960;1256;60345;-77
2023/12/13 21:37:55;;;;;;;21.80;11.10;;;;;;;-1.86;100.00;101144.16;106001;1251;60029;-77
2023/12/13 21:40:26;;;;;;;24.90;11.10;;;;;;;-1.95;100.00;101143.48;106041;1252;72449;-77
2023/12/13 21:42:54;;;;;;;24.80;10.80;;;;;;;-1.98;100.00;101139.88;106018;1257;64075;-76
2023/12/13 21:45:22;;;;;;;20.40;9.90;;;;;;;-1.95;100.00;101136.29;106554;1257;72568;-77
2023/12/13 21:47:49;;;;;;;18.20;8.90;;;;;;;-1.93;100.00;101132.70;106006;1251;59986;-77
2023/12/13 21:50:20;;;;;;;25.30;11.00;;;;;;;-1.93;100.00;101121.55;105961;1256;59659;-77
2023/12/13 21:52:48;;;;;;;27.10;11.10;;;;;;;-1.93;100.00;101116.75;105955;1251;71778;-77
2023/12/13 21:55:15;;;;;;;27.70;12.50;;;;;;;-1.93;100.00;101123.61;106207;1255;63851;-76
2023/12/13 21:57:44;;;;;;;18.80;10.10;;;;;;;-1.93;100.00;101134.58;106161;1251;72814;-75
2023/12/13 22:00:13;;;;;;;20.20;10.50;;;;;;;-1.97;100.00;101133.02;105890;1257;62032;-76
2023/12/13 22:02:41;;;;;;;23.00;11.20;;;;;;;-1.98;100.00;101139.20;105992;1251;60152;-75
2023/12/13 22:05:09;;;;;;;25.40;11.60;;;;;;;-1.97;100.00;101137.66;105949;1255;73103;-78
2023/12/13 22:07:37;;;;;;;21.00;10.40;;;;;;;-1.94;100.00;101140.91;105905;1255;62765;-78
2023/12/13 22:10:06;;;;;;;26.30;13.40;;;;;;;-1.95;100.00;101132.51;105841;1256;70917;-77
2023/12/13 22:12:34;;;;;;;31.20;13.90;;;;;;;-1.95;100.00;101132.52;105969;1251;61615;-75
2023/12/13 22:15:01;;;;;;;14.90;9.20;;;;;;;-1.98;100.00;101130.28;105957;1257;59691;-76
2023/12/13 22:17:31;;;;;;;22.10;9.20;;;;;;;-2.03;100.00;101129.09;105983;1255;71666;-78
2023/12/13 22:20:09;;;;;;;21.80;10.30;;;;;;;-2.08;100.00;101127.04;105982;1251;62513;-76
2023/12/13 22:22:37;;;;;;;20.70;10.50;;;;;;;-2.09;100.00;101120.18;106023;1254;71308;-74
2023/12/13 22:25:05;;;;;;;19.60;10.50;;;;;;;-2.08;100.00;101116.23;105815;1255;60428;-77
2023/12/13 22:27:33;;;;;;;22.10;10.50;;;;;;;-2.08;100.00;101110.77;106044;1251;59945;-76
2023/12/13 22:30:01;;;;;;;24.20;9.80;;;;;;;-2.09;100.00;101110.23;106013;1251;72892;-76
2023/12/13 22:45:36;;;;;;;17.50;8.50;;;;;;;-2.09;100.00;101119.67;103153;1286;603441;-76
2023/12/13 22:48:05;;;;;;;19.50;8.70;;;;;;;-2.09;100.00;101128.23;105287;1267;60440;-74
2023/12/13 22:50:35;;;;;;;18.70;9.30;;;;;;;-2.03;100.00;101126.70;105389;1267;60352;-75
2023/12/13 22:53:02;;;;;;;16.00;8.30;;;;;;;-1.98;100.00;101119.67;105548;1266;72226;-74
2023/12/13 22:55:29;;;;;;;16.80;8.90;;;;;;;-1.93;100.00;101113.16;105541;1264;62689;-75
2023/12/13 22:57:56;;;;;;;22.00;8.60;;;;;;;-1.91;100.00;101110.08;105095;1266;207667;-76
2023/12/13 23:00:27;;;;;;;28.70;11.20;;;;;;;-1.91;100.00;101104.08;105332;1264;60624;-75
2023/12/13 23:02:57;;;;;;;20.60;9.10;;;;;;;-1.90;100.00;101096.70;105465;1264;60202;-75
2023/12/13 23:05:24;;;;;;;24.40;9.20;;;;;;;-1.91;100.00;101085.06;105343;1261;72201;-75
2023/12/13 23:07:51;;;;;;;22.30;9.70;;;;;;;-1.93;100.00;101085.05;105381;1264;64184;-76
2023/12/13 23:10:18;;;;;;;19.10;8.30;;;;;;;-1.92;100.00;101084.71;105333;1260;71217;-77
2023/12/13 23:12:45;;;;;;;18.80;9.10;;;;;;;-1.92;100.00;101085.05;105306;1264;62031;-75
2023/12/13 23:15:13;;;;;;;19.90;8.60;;;;;;;-1.97;100.00;101076.31;105363;1261;60036;-74
2023/12/13 23:17:43;;;;;;;21.60;9.40;;;;;;;-2.05;100.00;101072.03;105444;1264;72929;-76
2023/12/13 23:20:10;;;;;;;16.00;9.50;;;;;;;-2.12;100.00;101068.28;105666;1261;62652;-77
2023/12/13 23:22:38;;;;;;;19.40;8.00;;;;;;;-2.15;100.00;101080.27;105358;1262;72686;-76